Terminal Aerodrome Forecast
Issued by NWS

Home | Current Version | Previous Version | Text Only | Print | Product List | Glossary On
Versions: 1 2 3 4 5 6 7 8 9 10 11 12 13 14
000
FTUS42 KTAE 250527
TAFDHN
TAF
KDHN 250527Z 2506/2606 VRB05KT P6SM SCT050 BKN250
     FM251200 15010KT P6SM BKN025
     FM251500 16012G20KT P6SM BKN040
     FM252100 18012G18KT 6SM -SHRA BKN030
     FM260200 17007KT P6SM BKN030=

USA.gov is the U.S. government's official web portal to all federal, state and local government web resources and services.